sensor_id;sensor_type;location;lat;lon;timestamp;P1;durP1;ratioP1;P2;durP2;ratioP2
69527;SDS011;57136;51.986;4.468;2022-10-16T00:02:16;3.45;;;1.92;;
69527;SDS011;57136;51.986;4.468;2022-10-16T00:04:42;3.40;;;1.08;;
69527;SDS011;57136;51.986;4.468;2022-10-16T00:07:07;1.98;;;1.20;;
69527;SDS011;57136;51.986;4.468;2022-10-16T00:09:32;2.47;;;1.33;;
69527;SDS011;57136;51.986;4.468;2022-10-16T00:11:58;3.33;;;1.15;;
69527;SDS011;57136;51.986;4.468;2022-10-16T00:14:23;2.55;;;1.40;;
69527;SDS011;57136;51.986;4.468;2022-10-16T00:16:48;1.30;;;1.00;;
69527;SDS011;57136;51.986;4.468;2022-10-16T00:19:14;2.25;;;1.05;;
69527;SDS011;57136;51.986;4.468;2022-10-16T00:21:39;1.30;;;0.98;;
69527;SDS011;57136;51.986;4.468;2022-10-16T00:24:06;2.47;;;0.95;;
69527;SDS011;57136;51.986;4.468;2022-10-16T00:26:33;1.05;;;0.90;;
69527;SDS011;57136;51.986;4.468;2022-10-16T00:29:01;2.50;;;1.00;;
69527;SDS011;57136;51.986;4.468;2022-10-16T00:31:27;1.05;;;0.85;;
69527;SDS011;57136;51.986;4.468;2022-10-16T00:33:52;1.30;;;0.70;;
69527;SDS011;57136;51.986;4.468;2022-10-16T00:36:19;2.67;;;1.20;;
69527;SDS011;57136;51.986;4.468;2022-10-16T00:38:46;0.82;;;0.70;;
69527;SDS011;57136;51.986;4.468;2022-10-16T00:41:13;2.22;;;0.80;;
69527;SDS011;57136;51.986;4.468;2022-10-16T00:46:15;1.58;;;0.70;;
69527;SDS011;57136;51.986;4.468;2022-10-16T00:48:40;2.67;;;0.70;;
69527;SDS011;57136;51.986;4.468;2022-10-16T00:51:08;2.70;;;0.90;;
69527;SDS011;57136;51.986;4.468;2022-10-16T00:53:33;2.38;;;1.20;;
69527;SDS011;57136;51.986;4.468;2022-10-16T00:56:00;2.08;;;1.17;;
69527;SDS011;57136;51.986;4.468;2022-10-16T00:58:26;3.10;;;1.10;;
69527;SDS011;57136;51.986;4.468;2022-10-16T01:00:51;2.45;;;1.30;;
69527;SDS011;57136;51.986;4.468;2022-10-16T01:03:30;1.98;;;1.30;;
69527;SDS011;57136;51.986;4.468;2022-10-16T01:08:51;2.88;;;1.52;;
69527;SDS011;57136;51.986;4.468;2022-10-16T01:11:33;4.65;;;1.60;;
69527;SDS011;57136;51.986;4.468;2022-10-16T01:14:10;3.85;;;1.35;;
69527;SDS011;57136;51.986;4.468;2022-10-16T01:16:46;2.78;;;1.40;;
69527;SDS011;57136;51.986;4.468;2022-10-16T01:22:21;1.92;;;1.30;;
69527;SDS011;57136;51.986;4.468;2022-10-16T01:24:56;2.90;;;1.60;;
69527;SDS011;57136;51.986;4.468;2022-10-16T01:27:28;3.03;;;1.48;;
69527;SDS011;57136;51.986;4.468;2022-10-16T01:32:44;1.50;;;1.20;;
69527;SDS011;57136;51.986;4.468;2022-10-16T01:40:46;3.83;;;1.38;;
69527;SDS011;57136;51.986;4.468;2022-10-16T01:43:17;3.00;;;1.50;;
69527;SDS011;57136;51.986;4.468;2022-10-16T01:45:46;2.45;;;1.40;;
69527;SDS011;57136;51.986;4.468;2022-10-16T01:48:13;4.75;;;1.40;;
69527;SDS011;57136;51.986;4.468;2022-10-16T01:50:41;2.22;;;1.65;;
69527;SDS011;57136;51.986;4.468;2022-10-16T01:53:11;4.22;;;1.55;;
69527;SDS011;57136;51.986;4.468;2022-10-16T01:55:42;3.88;;;1.90;;
69527;SDS011;57136;51.986;4.468;2022-10-16T01:58:11;5.13;;;2.25;;
69527;SDS011;57136;51.986;4.468;2022-10-16T02:00:38;3.38;;;1.75;;
69527;SDS011;57136;51.986;4.468;2022-10-16T02:03:06;2.38;;;1.88;;
69527;SDS011;57136;51.986;4.468;2022-10-16T02:05:36;6.78;;;1.80;;
69527;SDS011;57136;51.986;4.468;2022-10-16T02:08:07;2.20;;;1.50;;
69527;SDS011;57136;51.986;4.468;2022-10-16T02:10:32;5.30;;;2.10;;
69527;SDS011;57136;51.986;4.468;2022-10-16T02:13:05;2.15;;;1.65;;
69527;SDS011;57136;51.986;4.468;2022-10-16T02:15:37;3.83;;;1.83;;
69527;SDS011;57136;51.986;4.468;2022-10-16T02:18:03;3.95;;;2.72;;
69527;SDS011;57136;51.986;4.468;2022-10-16T02:20:31;6.22;;;2.20;;
69527;SDS011;57136;51.986;4.468;2022-10-16T02:23:01;3.13;;;1.90;;
69527;SDS011;57136;51.986;4.468;2022-10-16T02:30:47;6.47;;;1.67;;
69527;SDS011;57136;51.986;4.468;2022-10-16T02:33:16;3.05;;;1.83;;
69527;SDS011;57136;51.986;4.468;2022-10-16T02:35:43;3.28;;;1.80;;
69527;SDS011;57136;51.986;4.468;2022-10-16T02:38:11;2.67;;;1.70;;
69527;SDS011;57136;51.986;4.468;2022-10-16T02:40:38;2.15;;;1.50;;
69527;SDS011;57136;51.986;4.468;2022-10-16T02:43:04;2.50;;;1.50;;
69527;SDS011;57136;51.986;4.468;2022-10-16T02:45:30;2.50;;;1.45;;
69527;SDS011;57136;51.986;4.468;2022-10-16T02:47:56;2.65;;;1.73;;
69527;SDS011;57136;51.986;4.468;2022-10-16T02:50:21;3.85;;;1.80;;
69527;SDS011;57136;51.986;4.468;2022-10-16T02:52:47;2.53;;;1.50;;
69527;SDS011;57136;51.986;4.468;2022-10-16T02:55:14;3.20;;;1.50;;
69527;SDS011;57136;51.986;4.468;2022-10-16T02:57:39;2.72;;;1.42;;
69527;SDS011;57136;51.986;4.468;2022-10-16T03:00:06;3.47;;;1.50;;
69527;SDS011;57136;51.986;4.468;2022-10-16T03:02:32;2.05;;;1.50;;
69527;SDS011;57136;51.986;4.468;2022-10-16T03:04:58;4.85;;;1.92;;
69527;SDS011;57136;51.986;4.468;2022-10-16T03:07:23;3.80;;;1.50;;
69527;SDS011;57136;51.986;4.468;2022-10-16T03:09:48;2.55;;;1.75;;
69527;SDS011;57136;51.986;4.468;2022-10-16T03:12:14;2.55;;;1.48;;
69527;SDS011;57136;51.986;4.468;2022-10-16T03:14:39;2.72;;;1.50;;
69527;SDS011;57136;51.986;4.468;2022-10-16T03:17:05;5.90;;;1.70;;
69527;SDS011;57136;51.986;4.468;2022-10-16T03:19:31;4.35;;;1.65;;
69527;SDS011;57136;51.986;4.468;2022-10-16T03:21:56;3.80;;;1.63;;
69527;SDS011;57136;51.986;4.468;2022-10-16T03:24:22;4.07;;;1.80;;
69527;SDS011;57136;51.986;4.468;2022-10-16T03:26:47;3.45;;;1.33;;
69527;SDS011;57136;51.986;4.468;2022-10-16T03:29:16;5.03;;;1.95;;
69527;SDS011;57136;51.986;4.468;2022-10-16T03:31:42;3.72;;;1.58;;
69527;SDS011;57136;51.986;4.468;2022-10-16T03:34:07;3.53;;;1.60;;
69527;SDS011;57136;51.986;4.468;2022-10-16T03:36:33;4.28;;;1.42;;
69527;SDS011;57136;51.986;4.468;2022-10-16T03:38:58;2.53;;;1.58;;
69527;SDS011;57136;51.986;4.468;2022-10-16T03:41:23;2.45;;;1.30;;
69527;SDS011;57136;51.986;4.468;2022-10-16T03:43:49;2.90;;;1.27;;
69527;SDS011;57136;51.986;4.468;2022-10-16T03:46:14;3.00;;;1.50;;
69527;SDS011;57136;51.986;4.468;2022-10-16T03:48:39;3.63;;;1.20;;
69527;SDS011;57136;51.986;4.468;2022-10-16T03:51:05;3.92;;;1.40;;
69527;SDS011;57136;51.986;4.468;2022-10-16T03:53:31;4.35;;;1.30;;
69527;SDS011;57136;51.986;4.468;2022-10-16T03:55:56;5.38;;;2.08;;
69527;SDS011;57136;51.986;4.468;2022-10-16T03:58:21;4.35;;;1.40;;
69527;SDS011;57136;51.986;4.468;2022-10-16T04:00:47;2.25;;;1.30;;
69527;SDS011;57136;51.986;4.468;2022-10-16T04:03:13;3.55;;;1.63;;
69527;SDS011;57136;51.986;4.468;2022-10-16T04:05:39;2.38;;;1.17;;
69527;SDS011;57136;51.986;4.468;2022-10-16T04:08:04;4.25;;;1.70;;
69527;SDS011;57136;51.986;4.468;2022-10-16T04:10:30;2.50;;;1.70;;
69527;SDS011;57136;51.986;4.468;2022-10-16T04:12:56;1.60;;;1.40;;
69527;SDS011;57136;51.986;4.468;2022-10-16T04:15:24;4.13;;;1.48;;
69527;SDS011;57136;51.986;4.468;2022-10-16T04:17:50;2.95;;;1.50;;
69527;SDS011;57136;51.986;4.468;2022-10-16T04:20:16;3.42;;;1.42;;
69527;SDS011;57136;51.986;4.468;2022-10-16T04:22:42;2.75;;;1.25;;
69527;SDS011;57136;51.986;4.468;2022-10-16T04:25:08;5.30;;;1.65;;
69527;SDS011;57136;51.986;4.468;2022-10-16T04:27:33;2.10;;;1.30;;
69527;SDS011;57136;51.986;4.468;2022-10-16T04:29:59;3.58;;;1.40;;
69527;SDS011;57136;51.986;4.468;2022-10-16T04:32:25;4.50;;;1.50;;
69527;SDS011;57136;51.986;4.468;2022-10-16T04:34:51;3.67;;;1.63;;
69527;SDS011;57136;51.986;4.468;2022-10-16T04:37:16;2.35;;;1.40;;
69527;SDS011;57136;51.986;4.468;2022-10-16T04:39:41;2.35;;;1.58;;
69527;SDS011;57136;51.986;4.468;2022-10-16T04:42:07;4.82;;;1.70;;
69527;SDS011;57136;51.986;4.468;2022-10-16T04:44:32;3.22;;;1.50;;
69527;SDS011;57136;51.986;4.468;2022-10-16T04:46:57;4.95;;;1.63;;
69527;SDS011;57136;51.986;4.468;2022-10-16T04:49:23;2.85;;;1.85;;
69527;SDS011;57136;51.986;4.468;2022-10-16T04:51:48;3.60;;;1.50;;
69527;SDS011;57136;51.986;4.468;2022-10-16T04:54:14;3.00;;;1.70;;
69527;SDS011;57136;51.986;4.468;2022-10-16T04:56:39;1.90;;;1.33;;
69527;SDS011;57136;51.986;4.468;2022-10-16T04:59:11;3.22;;;1.92;;
69527;SDS011;57136;51.986;4.468;2022-10-16T05:01:37;5.63;;;1.90;;
69527;SDS011;57136;51.986;4.468;2022-10-16T05:04:02;5.22;;;1.90;;
69527;SDS011;57136;51.986;4.468;2022-10-16T05:06:28;6.82;;;1.60;;
69527;SDS011;57136;51.986;4.468;2022-10-16T05:08:53;3.70;;;1.80;;
69527;SDS011;57136;51.986;4.468;2022-10-16T05:11:18;2.80;;;1.45;;
69527;SDS011;57136;51.986;4.468;2022-10-16T05:13:44;3.05;;;1.35;;
69527;SDS011;57136;51.986;4.468;2022-10-16T05:16:10;2.22;;;1.70;;
69527;SDS011;57136;51.986;4.468;2022-10-16T05:18:35;4.78;;;1.98;;
69527;SDS011;57136;51.986;4.468;2022-10-16T05:21:00;3.75;;;1.83;;
69527;SDS011;57136;51.986;4.468;2022-10-16T05:23:26;4.28;;;1.58;;
69527;SDS011;57136;51.986;4.468;2022-10-16T05:25:52;5.03;;;1.63;;
69527;SDS011;57136;51.986;4.468;2022-10-16T05:28:22;4.90;;;1.92;;
69527;SDS011;57136;51.986;4.468;2022-10-16T05:30:49;2.55;;;1.55;;
69527;SDS011;57136;51.986;4.468;2022-10-16T05:33:15;3.80;;;1.70;;
69527;SDS011;57136;51.986;4.468;2022-10-16T05:35:40;2.50;;;2.03;;
69527;SDS011;57136;51.986;4.468;2022-10-16T05:38:05;4.60;;;1.73;;
69527;SDS011;57136;51.986;4.468;2022-10-16T05:40:31;4.05;;;2.00;;
69527;SDS011;57136;51.986;4.468;2022-10-16T05:42:56;4.43;;;2.00;;
69527;SDS011;57136;51.986;4.468;2022-10-16T05:45:21;11.38;;;2.15;;
69527;SDS011;57136;51.986;4.468;2022-10-16T05:47:47;6.47;;;2.10;;
69527;SDS011;57136;51.986;4.468;2022-10-16T05:50:12;3.72;;;1.90;;
69527;SDS011;57136;51.986;4.468;2022-10-16T05:52:37;4.32;;;1.90;;
69527;SDS011;57136;51.986;4.468;2022-10-16T05:55:03;6.78;;;1.80;;
69527;SDS011;57136;51.986;4.468;2022-10-16T05:57:29;2.72;;;1.48;;
69527;SDS011;57136;51.986;4.468;2022-10-16T05:59:54;4.90;;;2.20;;
69527;SDS011;57136;51.986;4.468;2022-10-16T06:02:20;2.60;;;1.38;;
69527;SDS011;57136;51.986;4.468;2022-10-16T06:04:45;5.07;;;1.83;;
69527;SDS011;57136;51.986;4.468;2022-10-16T06:07:11;5.72;;;1.90;;
69527;SDS011;57136;51.986;4.468;2022-10-16T06:09:36;4.32;;;1.80;;
69527;SDS011;57136;51.986;4.468;2022-10-16T06:12:01;3.85;;;1.90;;
69527;SDS011;57136;51.986;4.468;2022-10-16T06:14:27;3.58;;;1.90;;
69527;SDS011;57136;51.986;4.468;2022-10-16T06:16:52;7.22;;;1.95;;
69527;SDS011;57136;51.986;4.468;2022-10-16T06:19:17;6.53;;;2.15;;
69527;SDS011;57136;51.986;4.468;2022-10-16T06:21:43;7.80;;;1.77;;
69527;SDS011;57136;51.986;4.468;2022-10-16T06:24:09;2.65;;;1.70;;
69527;SDS011;57136;51.986;4.468;2022-10-16T06:26:35;3.95;;;1.63;;
69527;SDS011;57136;51.986;4.468;2022-10-16T06:29:00;5.35;;;1.65;;
69527;SDS011;57136;51.986;4.468;2022-10-16T06:31:26;7.00;;;2.00;;
69527;SDS011;57136;51.986;4.468;2022-10-16T06:33:55;4.38;;;1.05;;
69527;SDS011;57136;51.986;4.468;2022-10-16T06:36:21;6.20;;;1.13;;
69527;SDS011;57136;51.986;4.468;2022-10-16T06:38:47;5.85;;;1.33;;
69527;SDS011;57136;51.986;4.468;2022-10-16T06:41:13;4.95;;;1.95;;
69527;SDS011;57136;51.986;4.468;2022-10-16T06:43:41;7.68;;;2.40;;
69527;SDS011;57136;51.986;4.468;2022-10-16T06:46:07;5.53;;;1.70;;
69527;SDS011;57136;51.986;4.468;2022-10-16T06:48:35;5.43;;;2.13;;
69527;SDS011;57136;51.986;4.468;2022-10-16T06:51:02;3.60;;;1.52;;
69527;SDS011;57136;51.986;4.468;2022-10-16T06:53:34;5.78;;;1.90;;
69527;SDS011;57136;51.986;4.468;2022-10-16T06:58:34;7.90;;;1.75;;
69527;SDS011;57136;51.986;4.468;2022-10-16T07:00:59;4.95;;;1.95;;
69527;SDS011;57136;51.986;4.468;2022-10-16T07:03:24;9.27;;;2.50;;
69527;SDS011;57136;51.986;4.468;2022-10-16T07:05:50;4.65;;;1.60;;
69527;SDS011;57136;51.986;4.468;2022-10-16T07:08:15;7.72;;;1.73;;
69527;SDS011;57136;51.986;4.468;2022-10-16T07:10:40;5.45;;;1.90;;
69527;SDS011;57136;51.986;4.468;2022-10-16T07:13:06;5.75;;;1.67;;
69527;SDS011;57136;51.986;4.468;2022-10-16T07:15:32;5.72;;;2.03;;
69527;SDS011;57136;51.986;4.468;2022-10-16T07:17:58;6.07;;;1.73;;
69527;SDS011;57136;51.986;4.468;2022-10-16T07:20:23;5.00;;;2.00;;
69527;SDS011;57136;51.986;4.468;2022-10-16T07:22:49;3.90;;;1.70;;
69527;SDS011;57136;51.986;4.468;2022-10-16T07:25:14;4.70;;;1.70;;
69527;SDS011;57136;51.986;4.468;2022-10-16T07:27:39;6.80;;;1.83;;
69527;SDS011;57136;51.986;4.468;2022-10-16T07:30:05;7.38;;;2.00;;
69527;SDS011;57136;51.986;4.468;2022-10-16T07:32:31;7.82;;;1.95;;
69527;SDS011;57136;51.986;4.468;2022-10-16T07:34:56;8.40;;;2.05;;
69527;SDS011;57136;51.986;4.468;2022-10-16T07:37:22;5.35;;;1.70;;
69527;SDS011;57136;51.986;4.468;2022-10-16T07:39:47;6.40;;;2.30;;
69527;SDS011;57136;51.986;4.468;2022-10-16T07:42:16;6.60;;;2.30;;
69527;SDS011;57136;51.986;4.468;2022-10-16T07:44:42;10.93;;;2.10;;
69527;SDS011;57136;51.986;4.468;2022-10-16T07:47:07;6.72;;;1.77;;
69527;SDS011;57136;51.986;4.468;2022-10-16T07:49:33;10.35;;;1.80;;
69527;SDS011;57136;51.986;4.468;2022-10-16T07:51:58;4.80;;;1.50;;
69527;SDS011;57136;51.986;4.468;2022-10-16T07:54:23;5.45;;;1.90;;
69527;SDS011;57136;51.986;4.468;2022-10-16T07:56:49;5.13;;;1.70;;
69527;SDS011;57136;51.986;4.468;2022-10-16T07:59:14;8.38;;;1.88;;
69527;SDS011;57136;51.986;4.468;2022-10-16T08:01:40;4.72;;;1.40;;
69527;SDS011;57136;51.986;4.468;2022-10-16T08:04:08;4.72;;;1.80;;
69527;SDS011;57136;51.986;4.468;2022-10-16T08:06:36;5.78;;;1.40;;
69527;SDS011;57136;51.986;4.468;2022-10-16T08:09:06;7.63;;;1.80;;
69527;SDS011;57136;51.986;4.468;2022-10-16T08:11:32;3.50;;;1.75;;
69527;SDS011;57136;51.986;4.468;2022-10-16T08:13:58;7.13;;;1.40;;
69527;SDS011;57136;51.986;4.468;2022-10-16T08:16:23;6.57;;;1.67;;
69527;SDS011;57136;51.986;4.468;2022-10-16T08:18:49;8.20;;;1.83;;
69527;SDS011;57136;51.986;4.468;2022-10-16T08:21:17;8.15;;;2.03;;
69527;SDS011;57136;51.986;4.468;2022-10-16T08:23:45;7.68;;;1.63;;
69527;SDS011;57136;51.986;4.468;2022-10-16T08:26:11;4.43;;;1.65;;
69527;SDS011;57136;51.986;4.468;2022-10-16T08:28:38;3.25;;;1.60;;
69527;SDS011;57136;51.986;4.468;2022-10-16T08:31:14;9.23;;;2.00;;
69527;SDS011;57136;51.986;4.468;2022-10-16T08:33:41;5.47;;;1.98;;
69527;SDS011;57136;51.986;4.468;2022-10-16T08:36:11;7.82;;;1.45;;
69527;SDS011;57136;51.986;4.468;2022-10-16T08:38:38;5.82;;;1.50;;
69527;SDS011;57136;51.986;4.468;2022-10-16T08:41:17;7.70;;;1.60;;
69527;SDS011;57136;51.986;4.468;2022-10-16T08:46:36;6.20;;;1.48;;
69527;SDS011;57136;51.986;4.468;2022-10-16T08:49:12;12.52;;;1.60;;
69527;SDS011;57136;51.986;4.468;2022-10-16T08:51:38;5.53;;;1.63;;
69527;SDS011;57136;51.986;4.468;2022-10-16T08:54:10;7.03;;;1.83;;
69527;SDS011;57136;51.986;4.468;2022-10-16T08:56:49;7.20;;;1.75;;
69527;SDS011;57136;51.986;4.468;2022-10-16T08:59:14;6.45;;;1.55;;
69527;SDS011;57136;51.986;4.468;2022-10-16T09:01:44;8.55;;;1.70;;
69527;SDS011;57136;51.986;4.468;2022-10-16T09:07:27;6.53;;;1.58;;
69527;SDS011;57136;51.986;4.468;2022-10-16T09:10:17;10.43;;;1.90;;
69527;SDS011;57136;51.986;4.468;2022-10-16T09:12:49;8.20;;;1.58;;
69527;SDS011;57136;51.986;4.468;2022-10-16T09:23:41;13.60;;;2.22;;
69527;SDS011;57136;51.986;4.468;2022-10-16T09:26:09;7.50;;;2.13;;
69527;SDS011;57136;51.986;4.468;2022-10-16T09:28:38;11.55;;;1.83;;
69527;SDS011;57136;51.986;4.468;2022-10-16T09:31:04;7.45;;;1.75;;
69527;SDS011;57136;51.986;4.468;2022-10-16T09:33:32;7.43;;;1.80;;
69527;SDS011;57136;51.986;4.468;2022-10-16T09:36:02;8.02;;;1.70;;
69527;SDS011;57136;51.986;4.468;2022-10-16T09:38:31;11.65;;;1.80;;
69527;SDS011;57136;51.986;4.468;2022-10-16T09:41:02;10.77;;;1.98;;
69527;SDS011;57136;51.986;4.468;2022-10-16T09:49:02;4.82;;;1.55;;
69527;SDS011;57136;51.986;4.468;2022-10-16T09:51:30;10.27;;;1.80;;
69527;SDS011;57136;51.986;4.468;2022-10-16T09:56:33;5.95;;;1.60;;
69527;SDS011;57136;51.986;4.468;2022-10-16T09:59:02;9.70;;;2.00;;
69527;SDS011;57136;51.986;4.468;2022-10-16T10:01:40;6.63;;;1.58;;
69527;SDS011;57136;51.986;4.468;2022-10-16T10:04:07;7.43;;;1.52;;
69527;SDS011;57136;51.986;4.468;2022-10-16T10:06:33;11.13;;;1.98;;
69527;SDS011;57136;51.986;4.468;2022-10-16T10:11:37;9.93;;;1.90;;
69527;SDS011;57136;51.986;4.468;2022-10-16T10:14:04;6.40;;;1.60;;
69527;SDS011;57136;51.986;4.468;2022-10-16T10:16:31;9.55;;;2.03;;
69527;SDS011;57136;51.986;4.468;2022-10-16T10:19:00;10.60;;;2.08;;
69527;SDS011;57136;51.986;4.468;2022-10-16T10:21:25;7.03;;;1.90;;
69527;SDS011;57136;51.986;4.468;2022-10-16T10:23:56;6.75;;;1.60;;
69527;SDS011;57136;51.986;4.468;2022-10-16T10:26:23;10.05;;;1.98;;
69527;SDS011;57136;51.986;4.468;2022-10-16T10:31:44;11.02;;;2.00;;
69527;SDS011;57136;51.986;4.468;2022-10-16T10:37:21;11.98;;;2.13;;
69527;SDS011;57136;51.986;4.468;2022-10-16T10:40:06;8.75;;;1.80;;
69527;SDS011;57136;51.986;4.468;2022-10-16T10:45:38;7.03;;;1.45;;
69527;SDS011;57136;51.986;4.468;2022-10-16T10:51:01;7.13;;;1.92;;
69527;SDS011;57136;51.986;4.468;2022-10-16T10:56:10;9.40;;;1.73;;
69527;SDS011;57136;51.986;4.468;2022-10-16T11:01:37;8.70;;;1.67;;
69527;SDS011;57136;51.986;4.468;2022-10-16T11:09:58;9.88;;;2.03;;
69527;SDS011;57136;51.986;4.468;2022-10-16T11:12:31;3.83;;;1.30;;
69527;SDS011;57136;51.986;4.468;2022-10-16T11:15:04;9.65;;;1.88;;
69527;SDS011;57136;51.986;4.468;2022-10-16T11:17:45;9.50;;;1.67;;
69527;SDS011;57136;51.986;4.468;2022-10-16T11:20:20;5.85;;;1.45;;
69527;SDS011;57136;51.986;4.468;2022-10-16T11:22:51;9.98;;;1.42;;
69527;SDS011;57136;51.986;4.468;2022-10-16T11:25:28;7.70;;;1.70;;
69527;SDS011;57136;51.986;4.468;2022-10-16T11:30:25;9.73;;;1.60;;
69527;SDS011;57136;51.986;4.468;2022-10-16T11:38:21;6.80;;;1.50;;
69527;SDS011;57136;51.986;4.468;2022-10-16T11:40:59;7.40;;;1.90;;
69527;SDS011;57136;51.986;4.468;2022-10-16T11:43:32;7.00;;;1.65;;
69527;SDS011;57136;51.986;4.468;2022-10-16T11:46:04;7.28;;;1.48;;
69527;SDS011;57136;51.986;4.468;2022-10-16T11:48:41;7.18;;;1.70;;
69527;SDS011;57136;51.986;4.468;2022-10-16T11:51:16;6.05;;;1.45;;
69527;SDS011;57136;51.986;4.468;2022-10-16T11:53:49;10.00;;;1.55;;
69527;SDS011;57136;51.986;4.468;2022-10-16T11:56:20;6.32;;;1.38;;
69527;SDS011;57136;51.986;4.468;2022-10-16T11:58:54;8.55;;;1.30;;
69527;SDS011;57136;51.986;4.468;2022-10-16T12:07:12;12.20;;;1.80;;
69527;SDS011;57136;51.986;4.468;2022-10-16T12:09:45;6.70;;;1.63;;
69527;SDS011;57136;51.986;4.468;2022-10-16T12:12:26;6.97;;;1.50;;
69527;SDS011;57136;51.986;4.468;2022-10-16T12:17:51;7.07;;;1.60;;
69527;SDS011;57136;51.986;4.468;2022-10-16T12:23:03;7.80;;;1.40;;
69527;SDS011;57136;51.986;4.468;2022-10-16T12:25:34;7.53;;;1.40;;
69527;SDS011;57136;51.986;4.468;2022-10-16T12:30:40;10.23;;;2.08;;
69527;SDS011;57136;51.986;4.468;2022-10-16T12:35:51;7.80;;;1.95;;
69527;SDS011;57136;51.986;4.468;2022-10-16T12:38:19;9.43;;;2.25;;
69527;SDS011;57136;51.986;4.468;2022-10-16T12:40:54;5.85;;;1.17;;
69527;SDS011;57136;51.986;4.468;2022-10-16T12:46:20;8.38;;;1.65;;
69527;SDS011;57136;51.986;4.468;2022-10-16T12:48:47;5.10;;;1.35;;
69527;SDS011;57136;51.986;4.468;2022-10-16T12:51:32;6.70;;;1.52;;
69527;SDS011;57136;51.986;4.468;2022-10-16T12:56:37;5.63;;;1.45;;
69527;SDS011;57136;51.986;4.468;2022-10-16T13:07:55;4.75;;;1.35;;
69527;SDS011;57136;51.986;4.468;2022-10-16T13:18:59;9.18;;;1.63;;
69527;SDS011;57136;51.986;4.468;2022-10-16T13:21:51;9.15;;;1.63;;
69527;SDS011;57136;51.986;4.468;2022-10-16T13:24:52;7.13;;;1.63;;
69527;SDS011;57136;51.986;4.468;2022-10-16T13:27:27;7.30;;;1.50;;
69527;SDS011;57136;51.986;4.468;2022-10-16T13:30:02;9.60;;;1.65;;
69527;SDS011;57136;51.986;4.468;2022-10-16T13:32:49;8.68;;;1.48;;
69527;SDS011;57136;51.986;4.468;2022-10-16T13:35:24;10.13;;;1.80;;
69527;SDS011;57136;51.986;4.468;2022-10-16T13:38:04;4.68;;;1.33;;
69527;SDS011;57136;51.986;4.468;2022-10-16T13:40:29;6.60;;;1.45;;
69527;SDS011;57136;51.986;4.468;2022-10-16T13:42:54;5.72;;;1.55;;
69527;SDS011;57136;51.986;4.468;2022-10-16T13:45:21;8.85;;;1.65;;
69527;SDS011;57136;51.986;4.468;2022-10-16T13:47:48;9.73;;;1.92;;
69527;SDS011;57136;51.986;4.468;2022-10-16T13:50:16;7.47;;;1.35;;
69527;SDS011;57136;51.986;4.468;2022-10-16T13:52:43;6.32;;;1.60;;
69527;SDS011;57136;51.986;4.468;2022-10-16T13:55:15;8.38;;;1.85;;
69527;SDS011;57136;51.986;4.468;2022-10-16T13:57:43;7.38;;;1.90;;
69527;SDS011;57136;51.986;4.468;2022-10-16T14:02:53;7.40;;;1.50;;
69527;SDS011;57136;51.986;4.468;2022-10-16T14:05:23;6.05;;;1.63;;
69527;SDS011;57136;51.986;4.468;2022-10-16T14:07:49;7.78;;;1.60;;
69527;SDS011;57136;51.986;4.468;2022-10-16T14:12:56;9.77;;;1.60;;
69527;SDS011;57136;51.986;4.468;2022-10-16T14:15:23;6.47;;;1.90;;
69527;SDS011;57136;51.986;4.468;2022-10-16T14:17:50;9.20;;;2.10;;
69527;SDS011;57136;51.986;4.468;2022-10-16T14:20:16;9.18;;;1.75;;
69527;SDS011;57136;51.986;4.468;2022-10-16T14:22:43;9.35;;;1.75;;
69527;SDS011;57136;51.986;4.468;2022-10-16T14:25:28;7.05;;;1.42;;
69527;SDS011;57136;51.986;4.468;2022-10-16T14:28:14;9.38;;;2.03;;
69527;SDS011;57136;51.986;4.468;2022-10-16T14:30:52;7.82;;;1.52;;
69527;SDS011;57136;51.986;4.468;2022-10-16T14:33:20;9.27;;;1.60;;
69527;SDS011;57136;51.986;4.468;2022-10-16T14:36:00;5.53;;;1.70;;
69527;SDS011;57136;51.986;4.468;2022-10-16T14:38:26;6.97;;;1.63;;
69527;SDS011;57136;51.986;4.468;2022-10-16T14:40:51;15.25;;;2.38;;
69527;SDS011;57136;51.986;4.468;2022-10-16T14:43:20;10.00;;;2.88;;
69527;SDS011;57136;51.986;4.468;2022-10-16T14:45:54;9.48;;;2.08;;
69527;SDS011;57136;51.986;4.468;2022-10-16T14:48:21;9.60;;;2.08;;
69527;SDS011;57136;51.986;4.468;2022-10-16T14:50:47;8.98;;;1.92;;
69527;SDS011;57136;51.986;4.468;2022-10-16T14:53:13;8.25;;;1.90;;
69527;SDS011;57136;51.986;4.468;2022-10-16T14:55:39;10.82;;;1.88;;
69527;SDS011;57136;51.986;4.468;2022-10-16T14:58:06;6.85;;;1.55;;
69527;SDS011;57136;51.986;4.468;2022-10-16T15:00:38;9.45;;;2.08;;
69527;SDS011;57136;51.986;4.468;2022-10-16T15:03:03;14.50;;;2.25;;
69527;SDS011;57136;51.986;4.468;2022-10-16T15:05:28;10.55;;;2.08;;
69527;SDS011;57136;51.986;4.468;2022-10-16T15:07:54;11.93;;;2.33;;
69527;SDS011;57136;51.986;4.468;2022-10-16T15:10:21;8.65;;;1.60;;
69527;SDS011;57136;51.986;4.468;2022-10-16T15:12:51;10.07;;;1.83;;
69527;SDS011;57136;51.986;4.468;2022-10-16T15:17:45;6.13;;;1.65;;
69527;SDS011;57136;51.986;4.468;2022-10-16T15:20:10;10.13;;;1.77;;
69527;SDS011;57136;51.986;4.468;2022-10-16T15:22:35;7.75;;;1.70;;
69527;SDS011;57136;51.986;4.468;2022-10-16T15:25:01;11.57;;;1.92;;
69527;SDS011;57136;51.986;4.468;2022-10-16T15:27:27;10.35;;;1.67;;
69527;SDS011;57136;51.986;4.468;2022-10-16T15:30:04;7.57;;;1.77;;
69527;SDS011;57136;51.986;4.468;2022-10-16T15:32:30;10.32;;;2.33;;
69527;SDS011;57136;51.986;4.468;2022-10-16T15:34:55;10.13;;;2.08;;
69527;SDS011;57136;51.986;4.468;2022-10-16T15:37:21;15.98;;;2.65;;
69527;SDS011;57136;51.986;4.468;2022-10-16T15:39:46;9.50;;;2.17;;
69527;SDS011;57136;51.986;4.468;2022-10-16T15:42:11;10.65;;;2.85;;
69527;SDS011;57136;51.986;4.468;2022-10-16T15:44:36;11.57;;;3.50;;
69527;SDS011;57136;51.986;4.468;2022-10-16T15:47:02;8.32;;;2.20;;
69527;SDS011;57136;51.986;4.468;2022-10-16T15:49:27;9.98;;;2.55;;
69527;SDS011;57136;51.986;4.468;2022-10-16T15:51:52;5.50;;;1.92;;
69527;SDS011;57136;51.986;4.468;2022-10-16T15:54:19;5.43;;;1.73;;
69527;SDS011;57136;51.986;4.468;2022-10-16T15:56:47;9.65;;;2.70;;
69527;SDS011;57136;51.986;4.468;2022-10-16T15:59:12;6.20;;;1.65;;
69527;SDS011;57136;51.986;4.468;2022-10-16T16:01:39;9.63;;;2.03;;
69527;SDS011;57136;51.986;4.468;2022-10-16T16:04:04;7.88;;;1.90;;
69527;SDS011;57136;51.986;4.468;2022-10-16T16:06:29;8.63;;;2.13;;
69527;SDS011;57136;51.986;4.468;2022-10-16T16:08:55;7.97;;;2.80;;
69527;SDS011;57136;51.986;4.468;2022-10-16T16:11:21;10.50;;;2.78;;
69527;SDS011;57136;51.986;4.468;2022-10-16T16:13:49;8.27;;;2.70;;
69527;SDS011;57136;51.986;4.468;2022-10-16T16:16:18;8.63;;;2.60;;
69527;SDS011;57136;51.986;4.468;2022-10-16T16:18:50;10.70;;;2.67;;
69527;SDS011;57136;51.986;4.468;2022-10-16T16:21:18;7.90;;;2.22;;
69527;SDS011;57136;51.986;4.468;2022-10-16T16:23:43;7.00;;;2.58;;
69527;SDS011;57136;51.986;4.468;2022-10-16T16:28:48;11.55;;;3.88;;
69527;SDS011;57136;51.986;4.468;2022-10-16T16:31:14;11.20;;;3.42;;
69527;SDS011;57136;51.986;4.468;2022-10-16T16:33:39;13.20;;;3.67;;
69527;SDS011;57136;51.986;4.468;2022-10-16T16:36:05;8.15;;;3.58;;
69527;SDS011;57136;51.986;4.468;2022-10-16T16:38:31;10.05;;;3.40;;
69527;SDS011;57136;51.986;4.468;2022-10-16T16:40:57;8.50;;;2.80;;
69527;SDS011;57136;51.986;4.468;2022-10-16T16:43:26;8.95;;;3.42;;
69527;SDS011;57136;51.986;4.468;2022-10-16T16:45:52;11.15;;;3.15;;
69527;SDS011;57136;51.986;4.468;2022-10-16T16:48:18;10.07;;;3.42;;
69527;SDS011;57136;51.986;4.468;2022-10-16T16:50:44;14.15;;;3.67;;
69527;SDS011;57136;51.986;4.468;2022-10-16T16:53:10;12.18;;;3.20;;
69527;SDS011;57136;51.986;4.468;2022-10-16T16:55:35;9.68;;;3.88;;
69527;SDS011;57136;51.986;4.468;2022-10-16T16:58:00;11.00;;;2.97;;
69527;SDS011;57136;51.986;4.468;2022-10-16T17:00:27;8.13;;;3.08;;
69527;SDS011;57136;51.986;4.468;2022-10-16T17:02:53;11.98;;;3.30;;